Time;durP1;ratioP1;P1;durP2;ratioP2;P2;SDS_P1;SDS_P2;PMS_P1;PMS_P2;Temp;Humidity;BMP_temperature;BMP_pressure;BME280_temperature;BME280_humidity;BME280_pressure;Samples;Min_cycle;Max_cycle;Signal;HPM_P1;HPM_P2
2023/02/12 00:00:51;;;;;;;48.95;25.55;;;7.70;99.90;;;;;;5027544;28;20163;-79
2023/02/12 00:03:16;;;;;;;52.47;24.35;;;7.70;99.90;;;;;;5046184;28;20114;-80
2023/02/12 00:05:42;;;;;;;54.90;29.00;;;7.70;99.90;;;;;;5035022;28;20070;-79
2023/02/12 00:08:10;;;;;;;71.78;35.15;;;7.70;99.90;;;;;;5043490;28;20042;-79
2023/02/12 00:10:38;;;;;;;42.97;23.08;;;7.70;99.90;;;;;;5043717;28;20106;-79
2023/02/12 00:13:04;;;;;;;62.35;28.00;;;7.70;99.90;;;;;;5029563;28;21668;-79
2023/02/12 00:15:29;;;;;;;52.40;25.30;;;7.70;99.90;;;;;;5045424;28;25139;-80
2023/02/12 00:17:55;;;;;;;61.50;29.10;;;7.80;99.90;;;;;;5042023;28;20052;-79
2023/02/12 00:20:20;;;;;;;63.53;30.98;;;7.80;99.90;;;;;;5043139;28;20041;-79
2023/02/12 00:22:46;;;;;;;68.57;33.72;;;7.70;99.90;;;;;;5008021;28;20060;-79
2023/02/12 00:25:12;;;;;;;54.13;26.75;;;7.80;99.90;;;;;;5043118;28;20064;-80
2023/02/12 00:27:38;;;;;;;42.83;21.02;;;7.80;99.90;;;;;;5044310;28;20032;-79
2023/02/12 00:30:04;;;;;;;49.67;25.25;;;7.90;99.90;;;;;;5029363;28;20037;-79
2023/02/12 00:32:29;;;;;;;54.15;26.02;;;7.90;99.90;;;;;;5045260;28;20033;-79
2023/02/12 00:34:55;;;;;;;50.63;25.35;;;7.90;99.90;;;;;;5042773;28;20132;-79
2023/02/12 00:37:20;;;;;;;47.15;24.00;;;7.80;99.90;;;;;;5034593;28;20030;-79
2023/02/12 00:39:46;;;;;;;48.22;24.95;;;7.80;99.90;;;;;;5029737;28;20392;-79
2023/02/12 00:42:12;;;;;;;46.20;23.38;;;7.80;99.90;;;;;;5047746;28;20516;-79
2023/02/12 00:44:37;;;;;;;57.05;28.10;;;7.70;99.90;;;;;;5043712;28;20029;-80
2023/02/12 00:47:04;;;;;;;56.63;28.80;;;7.70;99.90;;;;;;5041593;28;20367;-79
2023/02/12 00:49:33;;;;;;;50.47;25.17;;;7.70;99.90;;;;;;5033158;28;20029;-79
2023/02/12 00:52:02;;;;;;;51.10;24.35;;;7.70;99.90;;;;;;5044845;28;20079;-79
2023/02/12 00:54:28;;;;;;;44.88;23.60;;;7.70;99.90;;;;;;5060616;28;20064;-79
2023/02/12 00:56:57;;;;;;;73.18;31.40;;;7.70;99.90;;;;;;5027360;28;20029;-79
2023/02/12 00:59:23;;;;;;;43.53;23.08;;;7.60;99.90;;;;;;5041922;28;20493;-80
2023/02/12 01:01:49;;;;;;;41.10;21.27;;;7.60;99.90;;;;;;5048007;28;20036;-80
2023/02/12 01:04:15;;;;;;;43.15;21.52;;;7.60;99.90;;;;;;5032485;28;20044;-80
2023/02/12 01:06:40;;;;;;;69.93;33.53;;;7.60;99.90;;;;;;5027631;28;20029;-80
2023/02/12 01:09:06;;;;;;;54.72;26.52;;;7.60;99.90;;;;;;5044249;28;20098;-80
2023/02/12 01:11:32;;;;;;;44.92;22.75;;;7.60;99.90;;;;;;5028373;28;20051;-79
2023/02/12 01:13:58;;;;;;;40.70;21.63;;;7.60;99.90;;;;;;5046628;28;20392;-80
2023/02/12 01:16:24;;;;;;;63.67;31.95;;;7.60;99.90;;;;;;5044255;28;20033;-80
2023/02/12 01:18:51;;;;;;;44.22;22.83;;;7.60;99.90;;;;;;5030244;28;20500;-79
2023/02/12 01:21:19;;;;;;;64.35;29.92;;;7.60;99.90;;;;;;5065738;28;20090;-80
2023/02/12 01:23:45;;;;;;;48.60;23.52;;;7.60;99.90;;;;;;5047454;28;20089;-80
2023/02/12 01:26:11;;;;;;;45.63;24.05;;;7.70;99.90;;;;;;5029318;28;20127;-80
2023/02/12 01:28:40;;;;;;;52.03;27.77;;;7.60;99.90;;;;;;5045673;28;20029;-80
2023/02/12 01:31:12;;;;;;;45.55;22.83;;;7.60;99.90;;;;;;5034070;28;20052;-80
2023/02/12 01:33:38;;;;;;;59.38;30.15;;;7.60;99.90;;;;;;5034573;28;20041;-79
2023/02/12 01:36:04;;;;;;;52.80;26.30;;;7.70;99.90;;;;;;5051536;28;20093;-79
2023/02/12 01:38:30;;;;;;;63.08;31.55;;;7.60;99.90;;;;;;5049891;28;20072;-79
2023/02/12 01:41:05;;;;;;;56.85;27.25;;;7.60;99.90;;;;;;5031553;28;20033;-79
2023/02/12 01:43:35;;;;;;;35.72;19.15;;;7.60;99.90;;;;;;5033383;28;20048;-80
2023/02/12 01:46:01;;;;;;;53.42;26.85;;;7.60;99.90;;;;;;5048600;28;20033;-78
2023/02/12 01:48:29;;;;;;;40.40;21.42;;;7.60;99.90;;;;;;5031558;28;20068;-79
2023/02/12 01:50:55;;;;;;;54.67;26.98;;;7.60;99.90;;;;;;5030960;28;20030;-78
2023/02/12 01:53:21;;;;;;;54.05;25.13;;;7.60;99.90;;;;;;5032619;28;20036;-78
2023/02/12 01:55:48;;;;;;;48.95;24.80;;;7.60;99.90;;;;;;5032729;28;20033;-78
2023/02/12 01:58:14;;;;;;;58.42;28.80;;;7.70;99.90;;;;;;5028453;28;20051;-79
2023/02/12 02:00:39;;;;;;;57.55;26.50;;;7.60;99.90;;;;;;5044211;28;20108;-80
2023/02/12 02:03:05;;;;;;;67.07;31.70;;;7.70;99.90;;;;;;5031332;28;20124;-80
2023/02/12 02:05:39;;;;;;;59.72;28.45;;;7.60;99.90;;;;;;5044371;28;20520;-80
2023/02/12 02:08:05;;;;;;;56.25;27.52;;;7.60;99.90;;;;;;5049327;28;20107;-79
2023/02/12 02:10:30;;;;;;;49.45;24.73;;;7.60;99.90;;;;;;5049049;28;20773;-79
2023/02/12 02:15:41;;;;;;;45.42;24.02;;;7.50;99.90;;;;;;5042949;28;20036;-79
2023/02/12 02:18:10;;;;;;;55.28;26.92;;;7.50;99.90;;;;;;5030492;28;20033;-79
2023/02/12 02:21:07;;;;;;;44.67;22.17;;;7.50;99.90;;;;;;5031375;28;20041;-80
2023/02/12 02:23:49;;;;;;;42.65;21.48;;;7.50;99.90;;;;;;5030953;28;20037;-80
2023/02/12 02:26:27;;;;;;;38.45;20.13;;;7.50;99.90;;;;;;5046523;28;20497;-79
2023/02/12 02:29:24;;;;;;;47.78;24.20;;;7.50;99.90;;;;;;5067492;28;20187;-79
2023/02/12 02:32:30;;;;;;;47.28;23.50;;;7.50;99.90;;;;;;5051564;28;20029;-80
2023/02/12 02:35:01;;;;;;;42.78;21.75;;;7.50;99.90;;;;;;5038073;28;20029;-80
2023/02/12 02:37:38;;;;;;;40.15;20.58;;;7.50;99.90;;;;;;5047220;28;20045;-79
2023/02/12 02:40:28;;;;;;;42.75;21.85;;;7.40;99.90;;;;;;5048016;28;20033;-79
2023/02/12 02:43:09;;;;;;;54.35;26.40;;;7.40;99.90;;;;;;5034531;28;20089;-80
2023/02/12 02:46:04;;;;;;;40.85;21.23;;;7.40;99.90;;;;;;5014753;28;20036;-79
2023/02/12 02:48:38;;;;;;;53.25;25.88;;;7.50;99.90;;;;;;5029145;28;20032;-80
2023/02/12 02:51:10;;;;;;;57.70;26.23;;;7.50;99.90;;;;;;5029413;28;22363;-79
2023/02/12 02:53:45;;;;;;;45.55;23.27;;;7.50;99.90;;;;;;5033577;28;20040;-78
2023/02/12 02:56:13;;;;;;;55.67;28.70;;;7.50;99.90;;;;;;5005480;28;20119;-78
2023/02/12 02:58:45;;;;;;;64.00;29.85;;;7.50;99.90;;;;;;5023072;28;20047;-78
2023/02/12 03:01:23;;;;;;;59.15;29.10;;;7.40;99.90;;;;;;5031883;28;20502;-78
2023/02/12 03:03:56;;;;;;;58.60;28.80;;;7.50;99.90;;;;;;5008879;28;20044;-78
2023/02/12 03:06:25;;;;;;;71.97;33.03;;;7.50;99.90;;;;;;5036527;28;20045;-78
2023/02/12 03:08:56;;;;;;;58.03;27.85;;;7.50;99.90;;;;;;5037704;28;20449;-78
2023/02/12 03:11:27;;;;;;;59.70;30.02;;;7.50;99.90;;;;;;5032099;28;20393;-78
2023/02/12 03:14:19;;;;;;;56.67;28.67;;;7.50;99.90;;;;;;5020571;28;20025;-79
2023/02/12 03:16:59;;;;;;;57.97;26.55;;;7.50;99.90;;;;;;5034546;28;20116;-79
2023/02/12 03:19:26;;;;;;;62.55;30.08;;;7.60;99.90;;;;;;5033698;28;20029;-78
2023/02/12 03:22:01;;;;;;;62.08;31.65;;;7.60;99.90;;;;;;5005134;28;20021;-78
2023/02/12 03:24:41;;;;;;;62.13;30.48;;;7.60;99.90;;;;;;5017608;28;20033;-79
2023/02/12 03:27:13;;;;;;;45.10;22.23;;;7.50;99.90;;;;;;5027571;28;20056;-78
2023/02/12 03:29:39;;;;;;;66.70;30.83;;;7.60;99.90;;;;;;5052607;28;20047;-78
2023/02/12 03:32:25;;;;;;;59.35;28.77;;;7.60;99.90;;;;;;5016808;28;20033;-78
2023/02/12 03:35:15;;;;;;;63.47;27.63;;;7.60;99.90;;;;;;5037256;28;20028;-78
2023/02/12 03:38:05;;;;;;;70.90;33.15;;;7.60;99.90;;;;;;5003174;28;20029;-78
2023/02/12 03:40:41;;;;;;;58.10;27.38;;;7.50;99.90;;;;;;5022299;28;20044;-78
2023/02/12 03:43:14;;;;;;;81.70;35.53;;;7.50;99.90;;;;;;5046480;28;20029;-78
2023/02/12 03:45:58;;;;;;;65.05;30.95;;;7.50;99.90;;;;;;5047830;28;20500;-80
2023/02/12 03:48:36;;;;;;;56.20;27.08;;;7.50;99.90;;;;;;5004143;28;20022;-81
2023/02/12 03:51:27;;;;;;;57.92;28.23;;;7.50;99.90;;;;;;5021898;28;20066;-80
2023/02/12 03:53:54;;;;;;;53.15;25.58;;;7.50;99.90;;;;;;5019861;28;20044;-80
2023/02/12 03:56:26;;;;;;;50.13;23.90;;;7.50;99.90;;;;;;5041395;28;20037;-80
2023/02/12 03:58:51;;;;;;;56.30;28.35;;;7.50;99.90;;;;;;5037069;28;20512;-80
2023/02/12 04:01:17;;;;;;;56.65;26.65;;;7.40;99.90;;;;;;5020601;28;20044;-80
2023/02/12 04:03:46;;;;;;;51.17;24.50;;;7.40;99.90;;;;;;5031632;28;20045;-80
2023/02/12 04:06:25;;;;;;;59.97;29.13;;;7.40;99.90;;;;;;5034127;28;20029;-79
2023/02/12 04:08:51;;;;;;;74.68;34.38;;;7.40;99.90;;;;;;5035807;28;20564;-80
2023/02/12 04:11:54;;;;;;;66.60;31.65;;;7.40;99.90;;;;;;5032962;28;20063;-79
2023/02/12 04:14:30;;;;;;;53.72;25.30;;;7.40;99.90;;;;;;5039425;28;20081;-79
2023/02/12 04:17:19;;;;;;;;;;;7.40;99.90;;;;;;5019497;28;20029;-78
2023/02/12 04:19:52;;;;;;;46.08;22.13;;;7.30;99.90;;;;;;5033833;28;19916;-79
2023/02/12 04:22:26;;;;;;;68.22;30.45;;;7.30;99.90;;;;;;5037608;28;20032;-79
2023/02/12 04:24:59;;;;;;;45.38;23.15;;;7.30;99.90;;;;;;5019895;28;20029;-78
2023/02/12 04:27:34;;;;;;;40.05;21.02;;;7.40;99.90;;;;;;5025129;28;20397;-78
2023/02/12 04:30:07;;;;;;;47.15;23.33;;;7.30;99.90;;;;;;5039646;28;20032;-78
2023/02/12 04:32:40;;;;;;;56.20;26.38;;;7.40;99.90;;;;;;5019066;28;20397;-79
2023/02/12 04:35:18;;;;;;;43.25;21.15;;;7.40;99.90;;;;;;5030736;28;20520;-79
2023/02/12 04:38:20;;;;;;;48.67;23.42;;;7.40;99.90;;;;;;5033469;28;20546;-78
2023/02/12 04:40:45;;;;;;;43.33;22.33;;;7.40;99.90;;;;;;5038351;28;20037;-78
2023/02/12 04:43:11;;;;;;;39.53;21.30;;;7.40;99.90;;;;;;5044672;28;20124;-77
2023/02/12 04:45:36;;;;;;;40.42;20.70;;;7.30;99.90;;;;;;5016263;28;20120;-77
2023/02/12 04:48:02;;;;;;;45.13;23.25;;;7.30;99.90;;;;;;5017734;28;20223;-78
2023/02/12 04:50:36;;;;;;;64.97;32.65;;;7.30;99.90;;;;;;5033084;28;20059;-77
2023/02/12 04:53:02;;;;;;;36.95;19.83;;;7.30;99.90;;;;;;5032185;28;20043;-77
2023/02/12 04:55:27;;;;;;;51.90;25.35;;;7.30;99.90;;;;;;5038291;28;20451;-78
2023/02/12 04:57:53;;;;;;;50.15;25.17;;;7.30;99.90;;;;;;5041628;28;20041;-78
2023/02/12 05:00:18;;;;;;;68.68;33.08;;;7.30;99.90;;;;;;5040796;28;20388;-77
2023/02/12 05:02:44;;;;;;;69.50;34.28;;;7.30;99.90;;;;;;5019553;28;20492;-78
2023/02/12 05:05:10;;;;;;;44.95;21.92;;;7.30;99.90;;;;;;5037640;28;20119;-77
2023/02/12 05:07:35;;;;;;;54.45;25.90;;;7.30;99.90;;;;;;5035963;28;20583;-77
2023/02/12 05:10:01;;;;;;;46.53;22.55;;;7.40;99.90;;;;;;5033694;28;20037;-77
2023/02/12 05:12:27;;;;;;;54.80;26.30;;;7.40;99.90;;;;;;5035387;28;20064;-77
2023/02/12 05:14:52;;;;;;;45.42;23.33;;;7.40;99.90;;;;;;5037823;28;20052;-78
2023/02/12 05:17:20;;;;;;;51.72;26.17;;;7.40;99.90;;;;;;5017709;28;20033;-77
2023/02/12 05:19:46;;;;;;;45.35;23.25;;;7.30;99.90;;;;;;5034717;28;20428;-78
2023/02/12 05:22:12;;;;;;;53.50;27.08;;;7.30;99.90;;;;;;5035418;28;20040;-78
2023/02/12 05:24:37;;;;;;;35.22;19.73;;;7.30;99.90;;;;;;5020872;28;20040;-77
2023/02/12 05:27:03;;;;;;;42.10;22.80;;;7.30;99.90;;;;;;5033960;28;20037;-77
2023/02/12 05:29:28;;;;;;;52.67;25.90;;;7.30;99.90;;;;;;5020043;28;20037;-77
2023/02/12 05:31:54;;;;;;;54.95;28.02;;;7.30;99.90;;;;;;5026757;28;20044;-77
2023/02/12 05:34:20;;;;;;;50.17;25.20;;;7.30;99.90;;;;;;5028205;28;20029;-78
2023/02/12 05:36:45;;;;;;;67.88;33.22;;;7.30;99.90;;;;;;5019419;28;20033;-77
2023/02/12 05:39:11;;;;;;;37.08;20.33;;;7.30;99.90;;;;;;5012976;28;20037;-77
2023/02/12 05:41:36;;;;;;;69.10;33.72;;;7.30;99.90;;;;;;5038885;28;20068;-77
2023/02/12 05:44:03;;;;;;;51.45;23.33;;;7.20;99.90;;;;;;5035786;28;20045;-77
2023/02/12 05:46:28;;;;;;;72.25;33.75;;;7.30;99.90;;;;;;5020090;28;20115;-77
2023/02/12 05:48:54;;;;;;;48.55;24.13;;;7.30;99.90;;;;;;5023920;28;20047;-78
2023/02/12 05:51:24;;;;;;;47.03;23.65;;;7.20;99.90;;;;;;5025129;28;20040;-77
2023/02/12 05:53:50;;;;;;;43.45;23.02;;;7.30;99.90;;;;;;5037289;28;20056;-78
2023/02/12 05:56:15;;;;;;;49.47;24.60;;;7.40;99.90;;;;;;5021306;28;20051;-77
2023/02/12 05:58:43;;;;;;;47.70;24.38;;;7.40;99.90;;;;;;5036257;28;20032;-77
2023/02/12 06:01:20;;;;;;;53.75;26.63;;;7.30;99.90;;;;;;5023710;28;20032;-77
2023/02/12 06:03:45;;;;;;;38.63;20.77;;;7.30;99.90;;;;;;5039309;28;20032;-77
2023/02/12 06:06:11;;;;;;;39.22;19.08;;;7.30;99.90;;;;;;5033016;28;20037;-80
2023/02/12 06:08:36;;;;;;;38.08;20.52;;;7.30;99.90;;;;;;5024259;28;20037;-78
2023/02/12 06:11:03;;;;;;;46.80;24.70;;;7.30;99.90;;;;;;5023261;28;20044;-78
2023/02/12 06:13:29;;;;;;;36.72;20.63;;;7.30;99.90;;;;;;5022340;28;20033;-78
2023/02/12 06:15:55;;;;;;;53.88;27.30;;;7.30;99.90;;;;;;5018213;28;20128;-78
2023/02/12 06:18:21;;;;;;;59.42;30.33;;;7.30;99.90;;;;;;5019538;28;20127;-79
2023/02/12 06:20:46;;;;;;;46.22;24.25;;;7.30;99.90;;;;;;5028211;28;20036;-78
2023/02/12 06:23:12;;;;;;;68.28;33.78;;;7.30;99.90;;;;;;5001590;28;20040;-78
2023/02/12 06:25:37;;;;;;;40.45;21.05;;;7.20;99.90;;;;;;4969484;28;20040;-78
2023/02/12 06:28:03;;;;;;;37.97;20.33;;;7.20;99.90;;;;;;4980291;28;20448;-78
2023/02/12 06:30:30;;;;;;;44.00;22.85;;;7.20;99.90;;;;;;5009379;28;20130;-77
2023/02/12 06:32:56;;;;;;;61.95;28.60;;;7.30;99.90;;;;;;5008805;28;20484;-78
2023/02/12 06:35:22;;;;;;;61.40;28.73;;;7.40;99.90;;;;;;5037222;28;20029;-78
2023/02/12 06:37:47;;;;;;;57.22;27.55;;;7.30;99.90;;;;;;5017439;28;20543;-78
2023/02/12 06:40:14;;;;;;;53.97;27.30;;;7.30;99.90;;;;;;5036377;28;20115;-78
2023/02/12 06:42:40;;;;;;;48.33;24.05;;;7.30;99.90;;;;;;5033533;28;20151;-78
2023/02/12 06:45:06;;;;;;;44.72;24.00;;;7.30;99.90;;;;;;5033170;28;20365;-78
2023/02/12 06:47:31;;;;;;;43.15;23.42;;;7.30;99.90;;;;;;5032894;28;20059;-78
2023/02/12 06:49:57;;;;;;;41.50;21.88;;;7.30;99.90;;;;;;5033837;28;20053;-77
2023/02/12 06:52:23;;;;;;;48.17;24.80;;;7.20;99.90;;;;;;5037727;28;20461;-77
2023/02/12 06:54:48;;;;;;;44.30;22.13;;;7.30;99.90;;;;;;5015638;28;20032;-78
2023/02/12 06:57:14;;;;;;;54.55;27.67;;;7.30;99.90;;;;;;5011242;28;20037;-78
2023/02/12 06:59:39;;;;;;;69.55;33.53;;;7.30;99.90;;;;;;5015125;28;20190;-79
2023/02/12 07:02:05;;;;;;;60.50;28.17;;;7.30;99.90;;;;;;5041814;28;20044;-79
2023/02/12 07:04:31;;;;;;;38.85;19.88;;;7.30;99.90;;;;;;5021626;28;20244;-79
2023/02/12 07:06:56;;;;;;;49.10;25.38;;;7.20;99.90;;;;;;5000265;28;20120;-78
2023/02/12 07:09:22;;;;;;;53.83;24.30;;;7.20;99.90;;;;;;5020271;28;20033;-78
2023/02/12 07:11:48;;;;;;;38.47;20.10;;;7.20;99.90;;;;;;5031690;28;20036;-78
2023/02/12 07:14:14;;;;;;;61.70;30.60;;;7.30;99.90;;;;;;5021030;28;20036;-78
2023/02/12 07:16:40;;;;;;;55.10;29.55;;;7.30;99.90;;;;;;5032460;28;20041;-78
2023/02/12 07:19:05;;;;;;;61.70;30.27;;;7.30;99.90;;;;;;5036208;28;20050;-78
2023/02/12 07:21:31;;;;;;;46.72;23.80;;;7.30;99.90;;;;;;5018346;28;20040;-78
2023/02/12 07:23:56;;;;;;;42.85;23.08;;;7.30;99.90;;;;;;5033538;28;20045;-78
2023/02/12 07:26:22;;;;;;;58.95;26.38;;;7.30;99.90;;;;;;5037998;28;20059;-78
2023/02/12 07:28:48;;;;;;;72.88;33.38;;;7.30;99.90;;;;;;5020498;28;20029;-78
2023/02/12 07:31:21;;;;;;;42.80;21.42;;;7.30;99.90;;;;;;4999747;28;20032;-78
2023/02/12 07:33:47;;;;;;;39.72;20.42;;;7.30;99.90;;;;;;5004719;28;20388;-78
2023/02/12 07:36:14;;;;;;;58.15;29.27;;;7.30;99.90;;;;;;5012204;28;20481;-77
2023/02/12 07:38:40;;;;;;;49.17;25.02;;;7.40;99.90;;;;;;5016926;28;20034;-78
2023/02/12 07:41:15;;;;;;;45.25;22.67;;;7.40;99.90;;;;;;5024768;28;20541;-78
2023/02/12 07:43:42;;;;;;;39.33;22.20;;;7.40;99.90;;;;;;5032549;28;20030;-78
2023/02/12 07:46:11;;;;;;;57.20;27.95;;;7.40;99.90;;;;;;5023951;28;20029;-78
2023/02/12 07:48:36;;;;;;;44.80;22.65;;;7.40;99.90;;;;;;5038005;28;20029;-77
2023/02/12 07:51:07;;;;;;;48.80;24.92;;;7.40;99.90;;;;;;5011474;28;20040;-78
2023/02/12 07:53:33;;;;;;;53.67;27.17;;;7.50;99.90;;;;;;5046618;28;20033;-79
2023/02/12 07:56:12;;;;;;;55.28;27.33;;;7.50;99.90;;;;;;5023531;28;20033;-78
2023/02/12 07:58:38;;;;;;;56.00;28.65;;;7.60;99.90;;;;;;5018032;28;20041;-78
2023/02/12 08:01:13;;;;;;;44.70;23.63;;;7.60;99.90;;;;;;5029861;28;20048;-79
2023/02/12 08:03:39;;;;;;;53.13;26.98;;;7.60;99.90;;;;;;5043176;28;20038;-79
2023/02/12 08:06:10;;;;;;;54.30;28.40;;;7.60;99.90;;;;;;5024471;28;20489;-80
2023/02/12 08:08:37;;;;;;;46.72;24.08;;;7.70;99.90;;;;;;5025093;28;20086;-79
2023/02/12 08:11:05;;;;;;;59.10;29.50;;;7.70;99.90;;;;;;5037388;28;20041;-79
2023/02/12 08:13:31;;;;;;;48.50;26.55;;;7.80;99.90;;;;;;5034816;28;20033;-79
2023/02/12 08:16:05;;;;;;;53.70;25.63;;;7.80;99.90;;;;;;5027733;28;20088;-79
2023/02/12 08:18:31;;;;;;;57.38;29.17;;;7.90;99.90;;;;;;5019017;28;20036;-78
2023/02/12 08:21:01;;;;;;;61.45;30.08;;;7.90;99.90;;;;;;5031225;28;20132;-78
2023/02/12 08:23:27;;;;;;;67.75;32.53;;;7.90;99.90;;;;;;5018563;28;20041;-77
2023/02/12 08:25:52;;;;;;;81.38;37.72;;;7.90;99.90;;;;;;5020578;28;20083;-77
2023/02/12 08:28:18;;;;;;;64.93;32.50;;;7.90;99.90;;;;;;5029040;28;20091;-78
2023/02/12 08:30:44;;;;;;;64.47;32.95;;;8.00;99.90;;;;;;5023116;28;20108;-77
2023/02/12 08:33:09;;;;;;;68.00;33.40;;;8.10;99.90;;;;;;5037124;28;20044;-78
2023/02/12 08:35:35;;;;;;;68.82;33.85;;;8.10;99.90;;;;;;5014136;28;20037;-78
2023/02/12 08:38:00;;;;;;;70.63;35.22;;;8.20;99.90;;;;;;5033315;28;20039;-77
2023/02/12 08:40:26;;;;;;;74.32;36.28;;;8.20;99.90;;;;;;5032735;28;20400;-77
2023/02/12 08:42:52;;;;;;;57.25;31.25;;;8.30;99.90;;;;;;5027812;28;20639;-79
2023/02/12 08:45:17;;;;;;;46.38;25.38;;;8.30;99.90;;;;;;5017506;28;20037;-79
2023/02/12 08:47:43;;;;;;;63.63;33.28;;;8.40;99.90;;;;;;5012355;28;20033;-78
2023/02/12 08:50:09;;;;;;;49.50;26.70;;;8.40;99.90;;;;;;5035587;28;20041;-78
2023/02/12 08:52:34;;;;;;;66.13;32.88;;;8.40;99.90;;;;;;5033642;28;20051;-78
2023/02/12 08:55:00;;;;;;;71.22;37.08;;;8.50;99.90;;;;;;5037204;28;20033;-78
2023/02/12 08:57:25;;;;;;;54.13;28.63;;;8.60;99.90;;;;;;5020341;28;20500;-79
2023/02/12 08:59:51;;;;;;;67.85;34.40;;;8.70;99.90;;;;;;5033601;28;20032;-78
2023/02/12 09:02:17;;;;;;;71.25;36.33;;;8.80;99.90;;;;;;5036060;28;20035;-77
2023/02/12 09:04:43;;;;;;;59.08;29.15;;;8.80;99.90;;;;;;5020303;28;20029;-77
2023/02/12 09:07:09;;;;;;;59.40;28.30;;;8.90;99.90;;;;;;5025142;28;20044;-77
2023/02/12 09:09:34;;;;;;;76.65;36.63;;;8.90;99.90;;;;;;5041871;28;20057;-76
2023/02/12 09:12:00;;;;;;;63.50;32.50;;;9.00;99.90;;;;;;5058031;28;20144;-77
2023/02/12 09:14:26;;;;;;;51.75;27.05;;;9.10;99.90;;;;;;5044563;28;20037;-78
2023/02/12 09:16:51;;;;;;;52.78;26.92;;;9.10;99.90;;;;;;5046859;28;20044;-77
2023/02/12 09:19:17;;;;;;;72.55;34.47;;;9.10;99.90;;;;;;5030368;28;20688;-78
2023/02/12 09:21:43;;;;;;;56.17;29.85;;;9.20;99.90;;;;;;5026532;28;20120;-78
2023/02/12 09:24:08;;;;;;;66.07;33.80;;;9.40;99.90;;;;;;5052066;28;20086;-78
2023/02/12 09:26:34;;;;;;;62.63;34.38;;;9.40;99.90;;;;;;5044933;28;20369;-78
2023/02/12 09:29:01;;;;;;;67.78;34.28;;;9.50;99.90;;;;;;5048086;28;20060;-78
2023/02/12 09:31:28;;;;;;;64.20;32.90;;;9.60;99.90;;;;;;5046421;28;20083;-78
2023/02/12 09:33:56;;;;;;;61.95;31.55;;;9.70;99.90;;;;;;5030392;28;20636;-79
2023/02/12 09:36:22;;;;;;;68.32;34.40;;;9.80;99.90;;;;;;5028916;28;20037;-78
2023/02/12 09:38:48;;;;;;;62.83;31.63;;;9.90;99.90;;;;;;5045123;28;20037;-78
2023/02/12 09:41:27;;;;;;;59.42;31.35;;;10.00;99.90;;;;;;5048607;28;20102;-80
2023/02/12 09:44:10;;;;;;;62.55;32.17;;;10.10;99.90;;;;;;5048947;28;20480;-80
2023/02/12 09:46:46;;;;;;;62.10;32.55;;;10.20;99.90;;;;;;5048271;28;20120;-80
2023/02/12 09:49:22;;;;;;;58.95;30.83;;;10.30;99.90;;;;;;5045046;28;20040;-80
2023/02/12 09:51:52;;;;;;;57.92;32.30;;;10.50;99.90;;;;;;5043665;28;20025;-79
2023/02/12 09:54:22;;;;;;;60.83;33.58;;;10.60;99.90;;;;;;5039843;28;20408;-80
2023/02/12 09:56:51;;;;;;;53.00;30.20;;;10.70;99.90;;;;;;5004382;28;20114;-79
2023/02/12 09:59:32;;;;;;;55.65;29.40;;;10.80;99.90;;;;;;5033953;28;20045;-79
2023/02/12 10:01:58;;;;;;;53.72;28.73;;;10.90;99.90;;;;;;5017737;28;20028;-79
2023/02/12 10:04:24;;;;;;;54.60;27.58;;;11.00;99.90;;;;;;5036545;28;20103;-80
2023/02/12 10:07:16;;;;;;;50.53;28.88;;;11.10;99.90;;;;;;5036324;28;20531;-80
2023/02/12 10:09:50;;;;;;;48.28;26.90;;;11.30;99.90;;;;;;5038560;28;20036;-80
2023/02/12 10:12:44;;;;;;;48.70;26.70;;;11.40;99.90;;;;;;5034602;28;20646;-80
2023/02/12 10:15:27;;;;;;;45.70;25.40;;;11.50;99.90;;;;;;5011496;28;20040;-80
2023/02/12 10:18:01;;;;;;;45.85;24.42;;;11.60;99.90;;;;;;5035467;28;20057;-80
2023/02/12 10:20:42;;;;;;;45.65;26.50;;;11.70;99.90;;;;;;5036588;28;20033;-79
2023/02/12 10:23:15;;;;;;;42.33;23.73;;;11.80;99.90;;;;;;5034960;28;20391;-80
2023/02/12 10:25:50;;;;;;;52.53;28.35;;;11.80;99.90;;;;;;5035423;28;20124;-80
2023/02/12 10:28:27;;;;;;;47.92;27.25;;;11.90;99.90;;;;;;5018015;28;20041;-80
2023/02/12 10:30:53;;;;;;;48.90;27.38;;;12.10;99.90;;;;;;5018276;28;20028;-79
2023/02/12 10:33:47;;;;;;;52.95;26.55;;;12.20;99.90;;;;;;5038515;28;20032;-80
2023/02/12 10:36:41;;;;;;;48.25;26.45;;;12.30;99.90;;;;;;5038674;28;20094;-79
2023/02/12 10:39:11;;;;;;;46.67;25.10;;;12.40;99.90;;;;;;5042341;28;20568;-80
2023/02/12 10:41:40;;;;;;;46.28;25.88;;;12.50;99.90;;;;;;5027464;28;20044;-79
2023/02/12 10:44:07;;;;;;;53.17;29.40;;;12.60;99.90;;;;;;5034077;28;20044;-80
2023/02/12 10:46:32;;;;;;;58.03;29.23;;;12.70;99.90;;;;;;5032956;28;20040;-79
2023/02/12 10:48:59;;;;;;;50.08;27.08;;;12.90;99.90;;;;;;5039274;28;20033;-80
2023/02/12 10:51:29;;;;;;;49.80;27.73;;;12.90;99.90;;;;;;5035028;28;20643;-80
2023/02/12 10:53:55;;;;;;;46.25;25.48;;;13.00;99.90;;;;;;5019486;28;20400;-79
2023/02/12 10:56:23;;;;;;;44.67;25.63;;;13.00;99.90;;;;;;5020953;28;20389;-79
2023/02/12 10:58:48;;;;;;;38.83;23.00;;;13.10;99.90;;;;;;5037117;28;20097;-80
2023/02/12 11:01:32;;;;;;;44.90;24.02;;;13.20;99.90;;;;;;5043918;28;20036;-81
2023/02/12 11:03:58;;;;;;;46.17;26.55;;;13.20;99.90;;;;;;5004118;28;20037;-80
2023/02/12 11:06:27;;;;;;;49.17;24.65;;;13.20;99.90;;;;;;5018824;28;20056;-80
2023/02/12 11:08:53;;;;;;;50.50;26.10;;;13.30;99.90;;;;;;5016355;28;20405;-80
2023/02/12 11:11:26;;;;;;;42.42;24.38;;;13.40;99.90;;;;;;5034883;28;20070;-81
2023/02/12 11:14:05;;;;;;;49.38;24.90;;;13.40;99.90;;;;;;5035338;28;20569;-79
2023/02/12 11:16:32;;;;;;;45.88;25.60;;;13.60;99.90;;;;;;5011885;28;20033;-79
2023/02/12 11:18:59;;;;;;;45.67;25.40;;;13.60;99.90;;;;;;5026792;28;20093;-80
2023/02/12 11:21:24;;;;;;;47.58;28.48;;;13.50;99.90;;;;;;5025548;28;20041;-77
2023/02/12 11:23:50;;;;;;;49.65;24.85;;;13.50;99.90;;;;;;5021944;28;20048;-79
2023/02/12 11:26:19;;;;;;;48.92;28.00;;;13.60;99.90;;;;;;5043010;28;20119;-79
2023/02/12 11:29:16;;;;;;;47.55;25.70;;;13.60;99.90;;;;;;5054390;28;20109;-79
2023/02/12 11:31:42;;;;;;;44.35;24.65;;;13.80;99.90;;;;;;5030885;28;20521;-79
2023/02/12 11:34:16;;;;;;;51.13;24.83;;;13.80;99.90;;;;;;5039700;28;20037;-77
2023/02/12 11:36:44;;;;;;;43.55;26.00;;;13.90;99.90;;;;;;5029889;28;20384;-77
2023/02/12 11:39:25;;;;;;;43.35;25.02;;;13.90;99.90;;;;;;5029536;28;20466;-77
2023/02/12 11:41:54;;;;;;;43.00;24.70;;;14.00;99.90;;;;;;5002414;28;20032;-79
2023/02/12 11:44:34;;;;;;;43.10;25.13;;;14.00;99.90;;;;;;5034170;28;20033;-79
2023/02/12 11:47:09;;;;;;;45.08;26.83;;;14.00;99.90;;;;;;5017139;28;20029;-79
2023/02/12 11:49:39;;;;;;;;;;;14.10;99.90;;;;;;4336087;28;10000264;-79
2023/02/12 11:52:05;;;;;;;48.35;25.05;;;14.10;99.90;;;;;;5029659;28;19912;-79
2023/02/12 11:54:35;;;;;;;47.80;25.38;;;14.20;99.90;;;;;;5031946;28;20037;-79
2023/02/12 11:57:00;;;;;;;51.10;26.88;;;14.10;99.90;;;;;;5017202;28;20047;-80
2023/02/12 11:59:31;;;;;;;38.35;21.33;;;14.20;99.90;;;;;;5021052;28;20270;-78
2023/02/12 12:02:00;;;;;;;47.08;25.73;;;14.30;99.90;;;;;;5056707;28;20044;-78
2023/02/12 12:04:26;;;;;;;50.03;26.38;;;14.30;99.90;;;;;;5018420;28;20060;-78
2023/02/12 12:06:54;;;;;;;40.83;23.73;;;14.30;99.90;;;;;;5002794;28;20606;-79
2023/02/12 12:09:48;;;;;;;41.53;24.63;;;14.40;99.90;;;;;;5037082;28;20091;-79
2023/02/12 12:12:39;;;;;;;39.88;22.75;;;14.30;99.90;;;;;;5026916;28;20584;-79
2023/02/12 12:21:28;;;;;;;40.35;21.88;;;14.40;99.90;;;;;;5034199;28;20047;-79
2023/02/12 12:24:18;;;;;;;40.58;21.98;;;14.40;99.90;;;;;;5029552;28;20112;-79
2023/02/12 12:26:48;;;;;;;35.05;21.35;;;14.40;99.90;;;;;;5035494;28;20484;-79
2023/02/12 12:29:23;;;;;;;42.08;22.58;;;14.50;99.90;;;;;;5032881;28;20102;-79
2023/02/12 12:31:54;;;;;;;38.33;21.52;;;14.50;99.90;;;;;;5035832;28;20033;-79
2023/02/12 12:34:23;;;;;;;35.33;21.08;;;14.50;99.90;;;;;;5034032;28;20042;-79
2023/02/12 12:37:23;;;;;;;39.15;22.00;;;14.50;99.90;;;;;;5017136;28;20040;-79
2023/02/12 12:40:08;;;;;;;33.75;20.55;;;14.60;99.90;;;;;;5040196;28;20033;-79
2023/02/12 12:42:54;;;;;;;37.60;20.63;;;14.50;99.90;;;;;;5021368;28;20052;-79
2023/02/12 12:45:59;;;;;;;34.92;19.67;;;14.60;99.90;;;;;;4666767;28;9999889;-79
2023/02/12 12:49:08;;;;;;;38.15;23.05;;;14.50;99.90;;;;;;5045472;28;20021;-79
2023/02/12 12:51:34;;;;;;;37.85;21.25;;;14.70;99.90;;;;;;5009608;28;20021;-79
2023/02/12 12:54:18;;;;;;;38.53;22.15;;;14.60;99.90;;;;;;5032660;28;20033;-79
2023/02/12 12:56:46;;;;;;;43.67;23.63;;;14.60;99.90;;;;;;5020970;28;20025;-79
2023/02/12 12:59:39;;;;;;;42.33;23.95;;;14.60;99.90;;;;;;5033492;28;20050;-79
2023/02/12 13:02:49;;;;;;;40.53;22.77;;;14.60;99.90;;;;;;5035274;28;20056;-79